Time;durP1;ratioP1;P1;durP2;ratioP2;P2;SDS_P1;SDS_P2;PMS_P1;PMS_P2;Temp;Humidity;BMP_temperature;BMP_pressure;BME280_temperature;BME280_humidity;BME280_pressure;Samples;Min_cycle;Max_cycle;Signal;HPM_P1;HPM_P2
2022/01/16 00:04:18;;;;;;;;;;;3.10;99.90;;;2.52;100.00;101420.41;4949887;28;20072;-77
2022/01/16 00:06:46;;;;;;;;;;;3.20;99.90;;;2.52;100.00;101446.38;4948253;29;19938;-77
2022/01/16 00:09:13;;;;;;;;;;;3.10;99.90;;;2.44;100.00;101431.44;4948442;28;19927;-77
2022/01/16 00:11:42;;;;;;;;;;;5.00;99.90;;;2.31;100.00;101438.03;4930358;29;19937;-77
2022/01/16 00:14:09;;;;;;;;;;;3.00;99.90;;;2.38;100.00;101455.53;4945299;28;19931;-77
2022/01/16 00:16:36;;;;;;;;;;;3.60;99.90;;;2.36;100.00;101434.72;4929678;29;20581;-77
2022/01/16 00:19:03;;;;;;;;;;;3.70;99.90;;;2.31;100.00;101444.09;4945560;29;19972;-77
2022/01/16 00:21:33;;;;;;;;;;;2.90;99.90;;;2.30;100.00;101464.84;4946886;28;19930;-77
2022/01/16 00:24:00;;;;;;;;;;;3.70;99.90;;;2.23;100.00;101456.84;4946682;28;20426;-77
2022/01/16 00:26:27;;;;;;;;;;;5.40;99.90;;;2.24;100.00;101450.81;4929646;29;19937;-77
2022/01/16 00:28:54;;;;;;;;;;;2.90;99.90;;;2.20;100.00;101446.38;4945027;29;19931;-77
2022/01/16 00:31:23;;;;;;;;;;;5.70;99.90;;;2.20;100.00;101429.94;4945165;29;19988;-77
2022/01/16 00:33:51;;;;;;;;;;;2.90;99.90;;;2.07;100.00;101415.72;4944813;29;19973;-77
2022/01/16 00:36:19;;;;;;;;;;;4.20;99.90;;;2.11;100.00;101425.38;4929261;29;19930;-77
2022/01/16 00:38:48;;;;;;;;;;;2.80;99.90;;;2.06;100.00;101417.47;4929100;29;19952;-77
2022/01/16 00:41:18;;;;;;;;;;;5.10;99.90;;;2.06;100.00;101401.88;4945229;29;19973;-77
2022/01/16 00:43:45;;;;;;;;;;;2.60;99.90;;;2.02;100.00;101430.31;4929239;29;20701;-77
2022/01/16 00:46:12;;;;;;;;;;;2.80;99.90;;;2.02;100.00;101438.94;4946451;28;19999;-77
2022/01/16 00:48:40;;;;;;;;;;;2.70;99.90;;;1.98;100.00;101438.00;4929373;29;19930;-77
2022/01/16 00:51:07;;;;;;;;;;;4.20;99.90;;;1.93;100.00;101420.53;4929185;29;19926;-77
2022/01/16 00:53:52;;;;;;;;;;;2.60;99.90;;;2.02;100.00;101427.72;4945228;29;19919;-77
2022/01/16 00:56:18;;;;;;;;;;;3.60;99.90;;;1.97;100.00;101446.63;4944715;29;19940;-77
2022/01/16 00:58:54;;;;;;;;;;;2.60;99.90;;;1.93;100.00;101455.16;4943694;29;19931;-76
2022/01/16 01:01:21;;;;;;;;;;;2.60;99.90;;;1.98;100.00;101439.72;4945916;28;19933;-76
2022/01/16 01:04:07;;;;;;;;;;;2.80;99.90;;;1.98;100.00;101460.47;4944590;28;20415;-76
2022/01/16 01:06:33;;;;;;;;;;;3.60;99.90;;;1.93;100.00;101443.91;4944507;29;19941;-77
2022/01/16 01:09:00;;;;;;;;;;;3.20;99.90;;;1.98;100.00;101452.69;4946313;28;19941;-76
2022/01/16 01:11:29;;;;;;;;;;;5.10;99.90;;;2.04;100.00;101459.78;4939496;28;19971;-76
2022/01/16 01:16:25;;;;;;;;;;;2.60;99.90;;;2.05;100.00;101469.31;4925702;29;19935;-76
2022/01/16 01:18:52;;;;;;;;;;;2.60;99.90;;;2.03;100.00;101458.91;4926639;29;19933;-76
2022/01/16 01:21:28;;;;;;;;;;;2.80;99.90;;;2.04;100.00;101446.78;4926612;29;19934;-76
2022/01/16 01:23:58;;;;;;;;;;;2.60;99.90;;;2.02;100.00;101402.59;4909653;29;20033;-76
2022/01/16 01:26:30;;;;;;;;;;;3.90;99.90;;;2.01;100.00;101374.03;4925309;29;19938;-77
2022/01/16 01:28:59;;;;;;;;;;;2.60;99.90;;;2.01;100.00;101363.66;4925450;29;19950;-75
2022/01/16 01:31:27;;;;;;;;;;;2.80;99.90;;;2.05;100.00;101365.47;4934653;29;19931;-76
2022/01/16 01:33:54;;;;;;;;;;;3.80;99.90;;;1.93;100.00;101363.44;4945721;28;19977;-76
2022/01/16 01:36:21;;;;;;;;;;;2.60;99.90;;;1.93;100.00;101368.63;4945990;28;19927;-76
2022/01/16 01:38:48;;;;;;;;;;;4.80;99.90;;;1.96;100.00;101386.88;4960257;28;19926;-77
2022/01/16 01:41:15;;;;;;;;;;;5.20;99.90;;;1.89;100.00;101398.81;4960243;28;19930;-76
2022/01/16 01:52:00;;;;;;;;;;;4.00;99.90;;;1.82;100.00;101435.81;4929946;29;19941;-77
2022/01/16 01:54:27;;;;;;;;;;;4.20;99.90;;;1.79;100.00;101446.97;4932019;28;19930;-77
2022/01/16 01:56:55;;;;;;;;;;;4.30;99.90;;;1.78;100.00;101446.91;4960308;28;20408;-77
2022/01/16 01:59:25;;;;;;;;;;;2.60;99.90;;;1.82;100.00;101435.81;4944108;28;20037;-77
2022/01/16 02:01:51;;;;;;;;;;;5.10;99.90;;;1.74;100.00;101439.88;4944276;29;19945;-77
2022/01/16 02:04:19;;;;;;;;;;;4.00;99.90;;;1.72;100.00;101451.94;4943846;29;19931;-77
2022/01/16 02:06:46;;;;;;;;;;;4.10;99.90;;;1.69;100.00;101450.13;4959543;28;19937;-77
2022/01/16 02:09:14;;;;;;;;;;;4.90;99.90;;;1.72;100.00;101460.63;4929016;29;19943;-77
2022/01/16 02:11:41;;;;;;;;;;;2.60;99.90;;;1.64;100.00;101468.16;4958154;28;19930;-77
2022/01/16 02:28:23;;;;;;;;;;;2.50;99.90;;;1.55;100.00;101457.50;4947464;29;19926;-76
2022/01/16 02:36:30;;;;;;;;;;;2.30;99.90;;;1.48;100.00;101446.03;4933454;29;19938;-76
2022/01/16 02:39:07;;;;;;;;;;;2.50;99.90;;;1.48;100.00;101437.38;4947441;29;19931;-76
2022/01/16 02:41:34;;;;;;;;;;;2.30;99.90;;;1.49;100.00;101437.44;4948382;28;20359;-75
2022/01/16 02:44:11;;;;;;;;;;;2.30;99.90;;;1.48;100.00;101439.97;4946489;29;19927;-76
2022/01/16 02:46:43;;;;;;;;;;;2.20;99.90;;;1.49;100.00;101428.78;4948200;28;19930;-76
2022/01/16 02:49:21;;;;;;;;;;;4.70;99.90;;;1.45;100.00;101422.63;4946903;29;19931;-76
2022/01/16 02:51:52;;;;;;;;;;;2.30;99.90;;;1.41;100.00;101421.63;4947123;29;19937;-76
2022/01/16 02:54:19;;;;;;;;;;;4.90;99.90;;;1.39;100.00;101409.44;4947326;29;19934;-75
2022/01/16 02:56:48;;;;;;;;;;;2.40;99.90;;;1.41;100.00;101408.66;4952106;29;20021;-75
2022/01/16 02:59:17;;;;;;;;;;;2.70;99.90;;;1.40;100.00;101404.31;4960662;29;19930;-75
2022/01/16 03:01:45;;;;;;;;;;;2.30;99.90;;;1.34;100.00;101406.72;4959364;29;19945;-76
2022/01/16 03:04:12;;;;;;;;;;;2.10;99.90;;;1.36;100.00;101409.34;4949850;29;19927;-76
2022/01/16 03:06:39;;;;;;;;;;;2.20;99.90;;;1.34;100.00;101411.03;4949071;29;20396;-76
2022/01/16 03:09:08;;;;;;;;;;;2.10;99.90;;;1.33;100.00;101423.13;4933453;28;19934;-76
2022/01/16 03:11:45;;;;;;;;;;;4.50;99.90;;;1.22;100.00;101401.16;4939503;29;19930;-76
2022/01/16 03:14:18;;;;;;;;;;;2.00;99.90;;;1.25;100.00;101407.34;4927346;28;19927;-76
2022/01/16 03:16:50;;;;;;;;;;;2.20;99.90;;;1.23;100.00;101405.50;4912763;29;19938;-76
2022/01/16 03:22:05;;;;;;;;;;;2.10;99.90;;;1.16;100.00;101400.94;4926629;29;19931;-76
2022/01/16 03:24:38;;;;;;;;;;;2.10;99.90;;;1.22;100.00;101412.41;4927286;29;19993;-76
2022/01/16 03:27:12;;;;;;;;;;;4.30;99.90;;;1.23;100.00;101408.09;4928471;29;19935;-76
2022/01/16 03:29:40;;;;;;;;;;;2.10;99.90;;;1.14;100.00;101413.88;4927701;29;19938;-76
2022/01/16 03:32:13;;;;;;;;;;;4.40;99.90;;;1.01;100.00;101407.41;4927582;29;19931;-75
2022/01/16 03:34:40;;;;;;;;;;;1.80;99.90;;;0.94;100.00;101416.72;4926906;29;19931;-76
2022/01/16 03:37:07;;;;;;;;;;;1.80;99.90;;;0.94;100.00;101408.94;4927140;29;19931;-76
2022/01/16 03:39:35;;;;;;;;;;;1.80;99.90;;;0.90;100.00;101411.38;4938151;29;19942;-75
2022/01/16 03:42:02;;;;;;;;;;;1.50;99.90;;;0.90;100.00;101412.25;4946192;29;19938;-76
2022/01/16 03:44:29;;;;;;;;;;;2.10;99.90;;;0.85;100.00;101406.03;4945693;28;19930;-76
2022/01/16 03:46:57;;;;;;;;;;;3.30;99.90;;;0.77;100.00;101410.97;4929979;29;19930;-75
2022/01/16 03:49:27;;;;;;;;;;;1.80;99.90;;;0.72;100.00;101404.78;4947021;28;19934;-75
2022/01/16 03:51:55;;;;;;;;;;;3.80;99.90;;;0.76;100.00;101416.09;4945581;29;19973;-76
2022/01/16 03:54:26;;;;;;;;;;;1.70;99.90;;;0.78;100.00;101411.84;4946024;29;19937;-76
2022/01/16 03:56:57;;;;;;;;;;;1.70;99.90;;;0.74;100.00;101402.22;4945445;28;20203;-76
2022/01/16 03:59:24;;;;;;;;;;;1.60;99.90;;;0.69;100.00;101409.81;4960953;28;19934;-76
2022/01/16 04:01:53;;;;;;;;;;;1.70;99.90;;;0.57;100.00;101405.13;4946815;29;19935;-75
2022/01/16 04:04:27;;;;;;;;;;;1.80;99.90;;;0.55;100.00;101396.44;4960981;28;19931;-76
2022/01/16 04:06:54;;;;;;;;;;;1.60;99.90;;;0.52;100.00;101394.59;4946746;28;19958;-76
2022/01/16 04:09:20;;;;;;;;;;;1.70;99.90;;;0.53;100.00;101409.31;4961357;28;19926;-76
2022/01/16 04:11:56;;;;;;;;;;;1.40;99.90;;;0.52;100.00;101409.28;4960800;28;19935;-75
2022/01/16 04:17:20;;;;;;;;;;;1.40;99.90;;;0.44;100.00;101413.31;4945202;28;19931;-76
2022/01/16 04:19:47;;;;;;;;;;;0.80;99.90;;;0.46;100.00;101417.72;4961155;28;19931;-76
2022/01/16 04:22:15;;;;;;;;;;;1.30;99.90;;;0.42;100.00;101423.63;4946148;28;19935;-76
2022/01/16 04:24:42;;;;;;;;;;;0.80;99.90;;;0.38;100.00;101412.28;4961022;28;19931;-76
2022/01/16 04:27:11;;;;;;;;;;;1.50;99.90;;;0.40;100.00;101423.56;4945327;28;19930;-76
2022/01/16 04:29:42;;;;;;;;;;;3.60;99.90;;;0.39;100.00;101426.09;4929779;29;20440;-77
2022/01/16 04:32:10;;;;;;;;;;;1.40;99.90;;;0.38;100.00;101412.28;4950560;28;19931;-76
2022/01/16 04:34:37;;;;;;;;;;;4.10;99.90;;;0.40;100.00;101413.19;4944813;29;19957;-76
2022/01/16 04:37:04;;;;;;;;;;;1.50;99.90;;;0.36;100.00;101406.16;4946279;28;19941;-75
2022/01/16 04:39:33;;;;;;;;;;;3.20;99.90;;;0.37;100.00;101407.91;4913747;29;20398;-77
2022/01/16 04:44:49;;;;;;;;;;;2.90;99.90;;;0.42;100.00;101408.09;4944757;29;19927;-77
2022/01/16 04:47:16;;;;;;;;;;;1.40;99.90;;;0.39;100.00;101401.09;4945258;29;19969;-77
2022/01/16 04:49:43;;;;;;;;;;;1.20;99.90;;;0.38;100.00;101394.16;4944724;28;19976;-77
2022/01/16 04:52:10;;;;;;;;;;;1.30;99.90;;;0.38;100.00;101390.66;4913488;29;19931;-77
2022/01/16 04:54:40;;;;;;;;;;;1.20;99.90;;;0.41;100.00;101388.19;4943934;29;20387;-77
2022/01/16 04:57:07;;;;;;;;;;;1.40;99.90;;;0.41;100.00;101401.16;4945931;28;19933;-77
2022/01/16 04:59:33;;;;;;;;;;;1.30;99.90;;;0.38;100.00;101398.44;4944752;28;19942;-77
2022/01/16 05:02:00;;;;;;;;;;;1.30;99.90;;;0.34;100.00;101381.94;4926885;29;19931;-77
2022/01/16 05:04:27;;;;;;;;;;;1.10;99.90;;;0.36;100.00;101389.72;4943909;28;19934;-77
2022/01/16 05:06:54;;;;;;;;;;;1.20;99.90;;;0.40;100.00;101392.47;4946352;28;19935;-76
2022/01/16 05:09:21;;;;;;;;;;;2.40;99.90;;;0.31;100.00;101391.28;4946122;28;19930;-76
2022/01/16 05:11:54;;;;;;;;;;;1.30;99.90;;;0.31;100.00;101384.38;4946122;28;19933;-75
2022/01/16 05:17:06;;;;;;;;;;;2.50;99.90;;;0.33;100.00;101406.06;4944559;29;19931;-76
2022/01/16 05:19:33;;;;;;;;;;;1.40;99.90;;;0.24;100.00;101405.72;4944335;28;19934;-76
2022/01/16 05:22:00;;;;;;;;;;;1.20;99.90;;;0.31;100.00;101397.34;4944522;29;19938;-75
2022/01/16 05:24:33;;;;;;;;;;;1.30;99.90;;;0.31;100.00;101396.47;4944257;29;19980;-75
2022/01/16 05:27:00;;;;;;;;;;;1.50;99.90;;;0.30;100.00;101399.88;4929085;29;20303;-75
2022/01/16 05:29:27;;;;;;;;;;;1.20;99.90;;;0.28;100.00;101400.72;4944415;28;19930;-75
2022/01/16 05:31:54;;;;;;;;;;;1.10;99.90;;;0.27;100.00;101409.31;4944632;29;20513;-76
2022/01/16 05:34:23;;;;;;;;;;;1.20;99.90;;;0.31;100.00;101412.00;4943984;29;20669;-77
2022/01/16 05:36:50;;;;;;;;;;;1.40;99.90;;;0.31;100.00;101418.03;4928861;29;20629;-77
2022/01/16 05:39:20;;;;;;;;;;;1.40;99.90;;;0.36;100.00;101407.84;4944167;28;19937;-77
2022/01/16 05:41:47;;;;;;;;;;;1.10;99.90;;;0.30;100.00;101421.47;4925007;28;20335;-77
2022/01/16 05:44:17;;;;;;;;;;;2.50;99.90;;;0.27;100.00;101409.31;4944677;28;19939;-77
2022/01/16 05:46:43;;;;;;;;;;;1.40;99.90;;;0.21;100.00;101419.44;4947615;29;19934;-76
2022/01/16 05:49:29;;;;;;;;;;;3.00;99.90;;;0.12;100.00;101414.81;4947347;28;20314;-77
2022/01/16 05:51:56;;;;;;;;;;;3.00;99.90;;;0.20;100.00;101416.81;4947623;29;19933;-77
2022/01/16 05:54:23;;;;;;;;;;;1.20;99.90;;;0.21;100.00;101429.78;4947246;29;19927;-77
2022/01/16 05:56:49;;;;;;;;;;;1.10;99.90;;;0.23;100.00;101427.25;4947525;29;19930;-77
2022/01/16 05:59:17;;;;;;;;;;;3.40;99.90;;;0.23;100.00;101428.13;4947248;28;19938;-77
2022/01/16 06:01:43;;;;;;;;;;;1.20;99.90;;;0.19;100.00;101415.91;4947402;29;19937;-77
2022/01/16 06:04:13;;;;;;;;;;;3.60;99.90;;;0.25;100.00;101421.31;4946882;29;19927;-77
2022/01/16 06:06:40;;;;;;;;;;;1.30;99.90;;;0.22;100.00;101426.38;4949100;28;19930;-77
2022/01/16 06:09:07;;;;;;;;;;;1.30;99.90;;;0.21;100.00;101424.59;4915910;29;19931;-77
2022/01/16 06:11:34;;;;;;;;;;;4.00;99.90;;;0.21;100.00;101431.50;4931328;29;19934;-77
2022/01/16 06:14:01;;;;;;;;;;;1.10;99.90;;;0.25;100.00;101439.44;4931173;29;19938;-77
2022/01/16 06:16:28;;;;;;;;;;;1.20;99.90;;;0.27;100.00;101444.66;4947194;28;19954;-77
2022/01/16 06:18:54;;;;;;;;;;;1.10;99.90;;;0.35;100.00;101463.06;4946748;28;19934;-77
2022/01/16 06:21:21;;;;;;;;;;;1.40;99.90;;;0.32;100.00;101450.00;4947014;29;19927;-77
2022/01/16 06:23:48;;;;;;;;;;;1.00;99.90;;;0.19;100.00;101459.91;4946851;29;20303;-77
2022/01/16 06:26:18;;;;;;;;;;;3.20;99.90;;;0.20;100.00;101466.84;4947108;29;19934;-77
2022/01/16 06:28:45;;;;;;;;;;;1.20;99.90;;;0.16;100.00;101471.84;4947508;28;19930;-76
2022/01/16 06:31:12;;;;;;;;;;;1.30;99.90;;;0.11;100.00;101466.53;4931733;29;19930;-76
2022/01/16 06:33:39;;;;;;;;;;;1.10;99.90;;;0.10;100.00;101470.81;4946711;29;19938;-75
2022/01/16 06:36:06;;;;;;;;;;;2.20;99.90;;;0.07;100.00;101490.53;4946888;29;19933;-76
2022/01/16 06:38:34;;;;;;;;;;;1.00;99.90;;;0.07;100.00;101475.88;4948112;28;19938;-76
2022/01/16 06:41:03;;;;;;;;;;;0.90;99.90;;;0.14;100.00;101479.59;4948189;28;19927;-76
2022/01/16 06:43:33;;;;;;;;;;;1.10;99.90;;;0.11;100.00;101480.34;4947561;29;19938;-76
2022/01/16 06:46:01;;;;;;;;;;;1.30;99.90;;;0.12;100.00;101486.41;4930702;29;19930;-76
2022/01/16 06:48:28;;;;;;;;;;;1.00;99.90;;;0.12;100.00;101489.00;4947908;28;20014;-76
2022/01/16 06:50:55;;;;;;;;;;;1.00;99.90;;;0.15;100.00;101481.34;4931074;29;19934;-76
2022/01/16 06:53:21;;;;;;;;;;;1.20;99.90;;;0.17;100.00;101489.19;4946610;29;20395;-76
2022/01/16 06:55:48;;;;;;;;;;;0.90;99.90;;;0.22;100.00;101495.41;4946882;28;20358;-76
2022/01/16 06:58:15;;;;;;;;;;;1.00;99.90;;;0.18;100.00;101499.56;4946579;28;19941;-75
2022/01/16 07:00:46;;;;;;;;;;;1.30;99.90;;;0.20;100.00;101504.81;4946338;29;19926;-76
2022/01/16 07:03:14;;;;;;;;;;;1.20;99.90;;;0.18;100.00;101506.47;4947369;28;19930;-75
2022/01/16 07:05:44;;;;;;;;;;;0.80;99.90;;;0.19;100.00;101518.59;4947815;28;19935;-77
2022/01/16 07:08:14;;;;;;;;;;;1.10;99.90;;;0.19;100.00;101513.41;4930646;29;19937;-77
2022/01/16 07:10:41;;;;;;;;;;;1.00;99.90;;;0.24;100.00;101524.81;4915265;29;19938;-76
2022/01/16 07:13:26;;;;;;;;;;;1.30;99.90;;;0.18;100.00;101530.63;4946565;29;19964;-77
2022/01/16 07:15:53;;;;;;;;;;;1.00;99.90;;;0.20;100.00;101541.06;4930822;29;19927;-76
2022/01/16 07:18:23;;;;;;;;;;;1.50;99.90;;;0.20;100.00;101530.72;4946290;28;20439;-77
2022/01/16 07:20:50;;;;;;;;;;;1.00;99.90;;;0.17;100.00;101534.06;4946228;29;19934;-77
2022/01/16 07:23:18;;;;;;;;;;;1.10;99.90;;;0.14;100.00;101533.94;4947570;28;19931;-77
2022/01/16 07:25:44;;;;;;;;;;;2.30;99.90;;;0.08;100.00;101544.94;4930012;29;20686;-76
2022/01/16 07:28:11;;;;;;;;;;;1.00;99.90;;;0.17;100.00;101549.59;4946286;29;19931;-77
2022/01/16 07:30:39;;;;;;;;;;;1.30;99.90;;;0.31;100.00;101562.16;4947516;28;20037;-76
2022/01/16 07:33:07;;;;;;;;;;;0.90;99.90;;;0.39;100.00;101555.53;4946081;29;20429;-77
2022/01/16 07:35:35;;;;;;;;;;;1.60;99.90;;;0.39;100.00;101559.03;4946706;29;19942;-78
2022/01/16 07:38:06;;;;;;;;;;;1.30;99.90;;;0.29;100.00;101556.91;4948040;28;19942;-78
2022/01/16 07:40:35;;;;;;;;;;;1.20;99.90;;;0.22;100.00;101553.22;4968486;28;19931;-78
2022/01/16 07:43:02;;;;;;;;;;;1.20;99.90;;;0.26;100.00;101564.56;4960250;28;19930;-76
2022/01/16 07:45:29;;;;;;;;;;;3.50;99.90;;;0.23;100.00;101591.22;4962389;28;19931;-77
2022/01/16 07:47:56;;;;;;;;;;;1.10;99.90;;;0.27;100.00;101574.09;4962333;28;19949;-76
2022/01/16 07:50:23;;;;;;;;;;;1.30;99.90;;;0.27;100.00;101579.28;4962457;28;19930;-78
2022/01/16 07:52:50;;;;;;;;;;;2.60;99.90;;;0.28;100.00;101581.03;4945818;28;19931;-77
2022/01/16 07:55:20;;;;;;;;;;;3.10;99.90;;;0.24;100.00;101587.84;4947487;28;20378;-79
2022/01/16 07:57:47;;;;;;;;;;;1.10;99.90;;;0.29;100.00;101585.41;4961776;28;19927;-76
2022/01/16 08:00:29;;;;;;;;;;;1.00;99.90;;;0.23;100.00;101588.63;4959827;28;19984;-77
2022/01/16 08:02:57;;;;;;;;;;;1.20;99.90;;;0.28;100.00;101599.16;4961548;28;20357;-77
2022/01/16 08:05:25;;;;;;;;;;;1.30;99.90;;;0.32;100.00;101601.06;4945697;29;19930;-77
2022/01/16 08:07:52;;;;;;;;;;;1.30;99.90;;;0.26;100.00;101601.72;4946819;28;19937;-78
2022/01/16 08:10:19;;;;;;;;;;;1.20;99.90;;;0.36;100.00;101596.88;4945960;29;19937;-78
2022/01/16 08:12:46;;;;;;;;;;;3.80;99.90;;;0.34;100.00;101593.34;4945404;29;20322;-78
2022/01/16 08:15:13;;;;;;;;;;;3.10;99.90;;;0.35;100.00;101602.88;4946620;29;19937;-77
2022/01/16 08:17:40;;;;;;;;;;;1.20;99.90;;;0.36;100.00;101599.47;4946447;29;19940;-77
2022/01/16 08:20:08;;;;;;;;;;;3.10;99.90;;;0.35;100.00;101597.69;4935007;28;19927;-77
2022/01/16 08:22:36;;;;;;;;;;;1.20;99.90;;;0.39;100.00;101584.03;4946692;29;19930;-77
2022/01/16 08:25:04;;;;;;;;;;;1.40;99.90;;;0.38;100.00;101590.03;4931310;29;19938;-77
2022/01/16 08:27:31;;;;;;;;;;;1.10;99.90;;;0.39;100.00;101602.16;4931203;29;19931;-77
2022/01/16 08:30:04;;;;;;;;;;;2.40;99.90;;;0.38;100.00;101614.25;4944731;29;19950;-77
2022/01/16 08:32:32;;;;;;;;;;;1.50;99.90;;;0.36;100.00;101626.25;4945387;29;19964;-76
2022/01/16 08:34:59;;;;;;;;;;;3.50;99.90;;;0.39;100.00;101628.94;4944803;29;19934;-77
2022/01/16 08:37:27;;;;;;;;;;;1.50;99.90;;;0.47;100.00;101628.34;4944895;29;20022;-77
2022/01/16 08:39:54;;;;;;;;;;;1.30;99.90;;;0.47;100.00;101628.34;4944145;29;19930;-77
2022/01/16 08:42:20;;;;;;;;;;;1.60;99.90;;;0.51;100.00;101622.47;4945935;29;19937;-77
2022/01/16 08:44:49;;;;;;;;;;;1.30;99.90;;;0.51;100.00;101633.69;4914610;29;19926;-77
2022/01/16 08:47:17;;;;;;;;;;;1.50;99.90;;;0.50;100.00;101624.16;4929294;28;19973;-78
2022/01/16 08:49:44;;;;;;;;;;;1.50;99.90;;;0.53;100.00;101626.00;4946378;28;19934;-77
2022/01/16 08:52:12;;;;;;;;;;;3.30;99.90;;;0.51;100.00;101627.66;4948551;28;20300;-78
2022/01/16 08:54:39;;;;;;;;;;;1.50;99.90;;;0.41;100.00;101637.66;4946790;29;19980;-77
2022/01/16 08:57:06;;;;;;;;;;;1.40;99.90;;;0.55;100.00;101638.19;4946888;29;19931;-76
2022/01/16 08:59:33;;;;;;;;;;;3.50;99.90;;;0.55;100.00;101643.38;4929684;28;19926;-76
2022/01/16 09:02:00;;;;;;;;;;;1.20;99.90;;;0.61;100.00;101641.84;4944106;28;20221;-76
2022/01/16 09:04:26;;;;;;;;;;;3.90;99.90;;;0.60;100.00;101642.66;4944694;28;19931;-77
2022/01/16 09:06:53;;;;;;;;;;;1.20;99.90;;;0.69;100.00;101648.16;4990718;28;19930;-77
2022/01/16 09:09:21;;;;;;;;;;;1.60;99.90;;;0.69;100.00;101645.56;4945503;28;19936;-77
2022/01/16 09:11:48;;;;;;;;;;;1.40;99.90;;;0.72;100.00;101658.66;4948608;29;19942;-76
2022/01/16 09:14:15;;;;;;;;;;;3.30;99.90;;;0.76;100.00;101654.47;4913244;28;20458;-76
2022/01/16 09:16:42;;;;;;;;;;;3.90;99.90;;;0.74;100.00;101659.59;4931378;29;19977;-78
2022/01/16 09:19:09;;;;;;;;;;;1.70;99.90;;;0.72;100.00;101673.31;4930940;29;19930;-79
2022/01/16 09:21:36;;;;;;;;;;;1.80;99.90;;;0.68;100.00;101667.13;4948333;29;20021;-77
2022/01/16 09:24:04;;;;;;;;;;;3.00;99.90;;;0.72;100.00;101669.03;4949226;28;19972;-78
2022/01/16 09:26:31;;;;;;;;;;;1.60;99.90;;;0.79;100.00;101675.31;4948754;28;19965;-78
2022/01/16 09:28:58;;;;;;;;;;;3.50;99.90;;;0.76;100.00;101675.19;4930117;29;20048;-80
2022/01/16 09:31:29;;;;;;;;;;;2.00;99.90;;;0.82;100.00;101683.22;4928318;29;19953;-79
2022/01/16 09:34:01;;;;;;;;;;;1.50;99.90;;;0.76;100.00;101683.84;4915856;29;19930;-78
2022/01/16 09:36:28;;;;;;;;;;;1.30;99.90;;;0.81;100.00;101684.91;4932390;29;19934;-78
2022/01/16 09:38:57;;;;;;;;;;;1.90;99.90;;;0.82;100.00;101680.63;4932328;29;19934;-79
2022/01/16 09:41:24;;;;;;;;;;;2.20;99.90;;;0.85;100.00;101691.94;4946887;29;19934;-76
2022/01/16 09:43:51;;;;;;;;;;;4.10;99.90;;;0.80;100.00;101697.81;4946227;28;19949;-77
2022/01/16 09:46:41;;;;;;;;;;;-0.20;99.90;;;0.86;100.00;101703.22;4966792;28;19971;-83
2022/01/16 09:49:32;;;;;;;;;;;4.40;99.90;;;0.82;100.00;101701.34;4946909;29;20013;-79
2022/01/16 09:51:59;;;;;;;;;;;2.90;99.90;;;0.74;100.00;101698.47;4935747;29;20004;-80
2022/01/16 09:54:32;;;;;;;;;;;4.40;99.90;;;0.80;100.00;101706.47;4934660;29;19930;-77
2022/01/16 09:57:06;;;;;;;;;;;3.80;99.90;;;0.83;100.00;101706.56;4934846;29;19926;-79
2022/01/16 09:59:34;;;;;;;;;;;4.20;99.90;;;0.84;100.00;101715.25;4933153;29;20008;-79
2022/01/16 10:02:03;;;;;;;;;;;2.20;99.90;;;0.80;100.00;101724.59;4950305;28;19980;-78
2022/01/16 10:04:46;;;;;;;;;;;2.50;99.90;;;0.85;100.00;101717.88;4935937;28;19927;-79
2022/01/16 10:07:25;;;;;;;;;;;2.50;99.90;;;0.80;100.00;101713.38;4952426;29;20009;-78
2022/01/16 10:10:10;;;;;;;;;;;1.60;99.90;;;0.83;100.00;101721.25;4949555;28;19937;-78
2022/01/16 10:12:54;;;;;;;;;;;2.60;99.90;;;0.81;100.00;101716.00;4918963;29;19926;-78
2022/01/16 10:15:27;;;;;;;;;;;2.80;99.90;;;0.82;100.00;101737.63;4935759;29;19931;-81
2022/01/16 10:18:04;;;;;;;;;;;2.00;99.90;;;0.87;100.00;101722.25;4951364;29;20037;-79
2022/01/16 10:20:42;;;;;;;;;;;3.60;99.90;;;0.81;100.00;101716.00;4950619;28;20399;-80
2022/01/16 10:23:21;;;;;;;;;;;1.60;99.90;;;0.94;100.00;101727.72;4918880;29;20718;-79
2022/01/16 10:25:54;;;;;;;;;;;1.90;99.90;;;0.88;100.00;101727.47;4931061;29;19930;-77
2022/01/16 10:28:26;;;;;;;;;;;3.40;99.90;;;0.87;100.00;101725.72;4926691;29;19962;-78
2022/01/16 10:30:57;;;;;;;;;;;3.50;99.90;;;0.98;100.00;101726.13;4914414;29;20017;-79
2022/01/16 10:33:27;;;;;;;;;;;2.40;99.90;;;1.00;100.00;101721.88;4930460;29;19953;-77
2022/01/16 10:35:55;;;;;;;;;;;4.60;99.90;;;1.03;100.00;101719.41;4928506;29;20026;-76
2022/01/16 10:38:27;;;;;;;;;;;1.60;99.90;;;1.04;100.00;101713.41;4929357;29;20003;-78
2022/01/16 10:40:57;;;;;;;;;;;2.00;99.90;;;1.00;100.00;101708.91;4930015;29;19984;-77
2022/01/16 10:43:44;;;;;;;;;;;0.30;99.90;;;1.16;100.00;101718.16;4914213;29;19937;-78
2022/01/16 10:46:13;;;;;;;;;;;1.90;99.90;;;1.15;100.00;101708.59;4916041;29;19930;-78
2022/01/16 10:49:16;;;;;;;;;;;3.70;99.90;;;1.32;100.00;101710.91;4917649;29;19931;-78
2022/01/16 10:52:02;;;;;;;;;;;2.10;99.90;;;1.34;100.00;101712.75;4916166;29;20030;-79
2022/01/16 10:54:34;;;;;;;;;;;5.00;99.90;;;1.52;100.00;101714.22;4932357;29;19930;-78
2022/01/16 10:57:23;;;;;;;;;;;1.80;99.90;;;1.59;100.00;101717.91;4914824;29;19931;-79
2022/01/16 11:00:14;;;;;;;;;;;2.30;99.90;;;1.63;100.00;101707.66;4935349;29;20396;-78
2022/01/16 11:02:43;;;;;;;;;;;4.30;99.90;;;1.55;100.00;101711.72;4916934;29;19967;-79
2022/01/16 11:05:21;;;;;;;;;;;2.60;99.90;;;1.62;100.00;101707.63;4949818;28;19937;-79
2022/01/16 11:08:25;;;;;;;;;;;2.40;99.90;;;1.55;100.00;101707.41;4936188;29;19931;-80
2022/01/16 11:10:56;;;;;;;;;;;2.70;99.90;;;1.62;100.00;101710.22;4928461;29;19931;-80
2022/01/16 11:13:27;;;;;;;;;;;3.80;99.90;;;1.70;100.00;101708.75;4950087;29;19926;-79
2022/01/16 11:15:56;;;;;;;;;;;5.90;99.90;;;1.75;100.00;101703.72;4951792;29;19931;-79
2022/01/16 11:18:24;;;;;;;;;;;2.40;99.90;;;1.74;100.00;101700.28;4966206;28;19927;-79
2022/01/16 11:21:18;;;;;;;;;;;3.70;99.90;;;1.73;100.00;101695.91;4931279;29;19969;-79
2022/01/16 11:26:19;;;;;;;;;;;3.60;99.90;;;1.68;100.00;101707.84;4934222;29;19936;-78
2022/01/16 11:28:47;;;;;;;;;;;2.60;99.90;;;1.72;100.00;101714.91;4916536;29;19958;-78
2022/01/16 11:31:15;;;;;;;;;;;2.70;99.90;;;1.68;100.00;101707.84;4946413;28;19930;-78
2022/01/16 11:33:42;;;;;;;;;;;2.60;99.90;;;1.65;100.00;101718.09;4961773;28;20570;-77
2022/01/16 11:36:23;;;;;;;;;;;2.70;99.90;;;1.66;100.00;101709.50;4976973;28;20029;-79
2022/01/16 11:38:54;;;;;;;;;;;2.50;99.90;;;1.65;100.00;101706.03;4959673;28;19941;-79
2022/01/16 11:41:31;;;;;;;;;;;2.70;99.90;;;1.71;100.00;101702.75;4931938;29;19970;-80
2022/01/16 11:44:03;;;;;;;;;;;2.50;99.90;;;1.73;100.00;101700.22;4948022;28;19930;-78
2022/01/16 11:46:32;;;;;;;;;;;3.30;99.90;;;1.77;100.00;101697.78;4955160;28;19980;-78
2022/01/16 11:49:00;;;;;;;;;;;2.60;99.90;;;1.84;100.00;101694.53;4963613;28;20381;-79
2022/01/16 11:51:40;;;;;;;;;;;5.40;99.90;;;1.91;100.00;101698.22;4948844;28;20386;-78
2022/01/16 11:54:06;;;;;;;;;;;2.70;99.90;;;1.92;100.00;101707.78;4933433;29;20021;-78
2022/01/16 11:56:40;;;;;;;;;;;2.50;99.90;;;1.95;100.00;101707.91;4931973;29;19930;-78
2022/01/16 11:59:34;;;;;;;;;;;2.60;99.90;;;1.94;100.00;101694.84;4948891;28;20349;-78
2022/01/16 12:02:02;;;;;;;;;;;3.00;99.90;;;1.90;100.00;101698.19;4930780;29;19962;-78
2022/01/16 12:04:29;;;;;;;;;;;3.10;99.90;;;2.03;100.00;101697.78;4963216;28;19930;-78
2022/01/16 12:07:19;;;;;;;;;;;2.80;99.90;;;2.32;100.00;101705.59;4949644;28;19945;-78
2022/01/16 12:09:49;;;;;;;;;;;2.80;99.90;;;2.31;100.00;101701.22;4946850;28;20033;-78
2022/01/16 12:12:16;;;;;;;;;;;3.30;99.90;;;2.27;100.00;101722.75;4931171;28;19927;-78
2022/01/16 12:15:05;;;;;;;;;;;3.00;99.90;;;2.23;100.00;101719.16;4953455;28;19933;-81
2022/01/16 12:17:41;;;;;;;;;;;3.30;99.90;;;2.37;100.00;101729.13;4927709;29;19931;-80